Time;durP1;ratioP1;P1;durP2;ratioP2;P2;SDS_P1;SDS_P2;PMS_P1;PMS_P2;Temp;Humidity;BMP_temperature;BMP_pressure;BME280_temperature;BME280_humidity;BME280_pressure;Samples;Min_cycle;Max_cycle;Signal;HPM_P1;HPM_P2
2021/06/10 00:01:47;;;;;;;;;3.00;3.00;;;;;;;;5074635;28;8950;-44
2021/06/10 00:04:12;;;;;;;;;6.00;6.00;;;;;;;;5031143;27;8779;-43
2021/06/10 00:06:37;;;;;;;;;4.00;4.00;;;;;;;;5102808;27;8764;-44
2021/06/10 00:09:03;;;;;;;;;5.33;4.67;;;;;;;;5102308;27;9505;-42
2021/06/10 00:11:28;;;;;;;;;5.00;5.00;;;;;;;;4994293;27;8942;-44
2021/06/10 00:13:54;;;;;;;;;5.00;5.00;;;;;;;;5101204;28;9493;-44
2021/06/10 00:16:19;;;;;;;;;5.33;5.33;;;;;;;;5104284;27;8766;-43
2021/06/10 00:18:48;;;;;;;;;7.33;7.33;;;;;;;;5092397;28;8797;-42
2021/06/10 00:21:13;;;;;;;;;8.00;8.00;;;;;;;;5083896;28;8786;-43
2021/06/10 00:23:39;;;;;;;;;6.00;5.67;;;;;;;;5074748;28;8873;-42
2021/06/10 00:26:04;;;;;;;;;7.00;7.00;;;;;;;;5080190;28;8813;-43
2021/06/10 00:28:29;;;;;;;;;7.00;7.00;;;;;;;;5083921;28;9532;-43
2021/06/10 00:30:54;;;;;;;;;7.00;7.00;;;;;;;;5089517;28;8955;-43
2021/06/10 00:33:20;;;;;;;;;6.33;6.33;;;;;;;;5095649;28;8811;-43
2021/06/10 00:35:45;;;;;;;;;6.33;6.33;;;;;;;;5104978;27;8781;-43
2021/06/10 00:38:10;;;;;;;;;7.00;7.00;;;;;;;;5082729;28;8804;-43
2021/06/10 00:40:36;;;;;;;;;7.00;6.67;;;;;;;;5082814;28;9451;-42
2021/06/10 00:43:01;;;;;;;;;7.00;7.00;;;;;;;;5082246;28;8782;-43
2021/06/10 00:45:27;;;;;;;;;5.67;5.67;;;;;;;;5084431;28;8825;-43
2021/06/10 00:47:53;;;;;;;;;5.33;5.33;;;;;;;;5084426;28;8811;-43
2021/06/10 00:50:20;;;;;;;;;6.67;6.67;;;;;;;;5086821;28;8777;-42
2021/06/10 00:52:46;;;;;;;;;6.00;6.00;;;;;;;;5078620;28;8783;-42
2021/06/10 00:55:12;;;;;;;;;6.75;6.00;;;;;;;;5084236;28;8766;-42
2021/06/10 00:57:37;;;;;;;;;6.67;6.00;;;;;;;;5085656;28;8933;-42
2021/06/10 01:00:05;;;;;;;;;6.33;6.33;;;;;;;;5104365;27;8774;-42
2021/06/10 01:02:30;;;;;;;;;6.50;5.50;;;;;;;;5103308;27;8767;-42
2021/06/10 01:04:55;;;;;;;;;9.33;7.67;;;;;;;;5102218;28;8837;-42
2021/06/10 01:07:39;;;;;;;;;6.00;6.00;;;;;;;;5096366;28;8892;-42
2021/06/10 01:10:10;;;;;;;;;6.75;5.75;;;;;;;;5101364;27;9588;-42
2021/06/10 01:12:40;;;;;;;;;6.50;6.25;;;;;;;;5096913;28;8773;-42
2021/06/10 01:15:12;;;;;;;;;5.25;5.25;;;;;;;;5088483;28;8786;-41
2021/06/10 01:17:46;;;;;;;;;5.75;5.75;;;;;;;;5094201;27;9412;-42
2021/06/10 01:20:13;;;;;;;;;5.75;5.75;;;;;;;;5087779;28;8782;-43
2021/06/10 01:22:59;;;;;;;;;4.50;4.50;;;;;;;;5088223;27;8920;-42
2021/06/10 01:25:24;;;;;;;;;6.75;6.50;;;;;;;;5096565;28;8828;-42
2021/06/10 01:28:00;;;;;;;;;7.00;7.00;;;;;;;;5098433;28;8766;-42
2021/06/10 01:30:36;;;;;;;;;6.00;6.00;;;;;;;;5098388;28;8809;-42
2021/06/10 01:33:08;;;;;;;;;5.50;4.50;;;;;;;;5100036;27;8774;-43
2021/06/10 01:35:35;;;;;;;;;5.50;5.50;;;;;;;;5105904;28;8795;-42
2021/06/10 01:38:01;;;;;;;;;6.25;5.50;;;;;;;;5088320;28;9280;-43
2021/06/10 01:40:27;;;;;;;;;6.00;5.33;;;;;;;;5085319;28;9585;-43
2021/06/10 01:42:54;;;;;;;;;5.25;5.25;;;;;;;;5086675;27;8783;-42
2021/06/10 01:45:21;;;;;;;;;5.50;5.50;;;;;;;;5091219;27;8799;-43
2021/06/10 01:47:46;;;;;;;;;5.25;4.75;;;;;;;;5082034;28;8785;-42
2021/06/10 01:50:13;;;;;;;;;4.33;4.33;;;;;;;;5082871;28;8789;-42
2021/06/10 01:52:40;;;;;;;;;6.00;6.00;;;;;;;;5083226;28;8893;-42
2021/06/10 01:55:06;;;;;;;;;6.00;6.00;;;;;;;;5090903;28;8774;-42
2021/06/10 01:57:33;;;;;;;;;6.25;6.25;;;;;;;;5099517;27;8854;-42
2021/06/10 01:59:59;;;;;;;;;4.50;4.50;;;;;;;;5086049;28;8782;-42
2021/06/10 02:02:25;;;;;;;;;5.50;5.00;;;;;;;;5080514;28;8840;-42
2021/06/10 02:04:51;;;;;;;;;5.00;5.00;;;;;;;;5085606;28;8811;-42
2021/06/10 02:07:17;;;;;;;;;6.67;6.67;;;;;;;;5102912;27;8788;-42
2021/06/10 02:09:43;;;;;;;;;5.75;5.75;;;;;;;;5097012;28;8772;-43
2021/06/10 02:12:09;;;;;;;;;5.00;5.00;;;;;;;;5105166;27;8809;-43
2021/06/10 02:14:34;;;;;;;;;6.00;5.00;;;;;;;;5092810;28;8790;-42
2021/06/10 02:16:59;;;;;;;;;5.00;4.33;;;;;;;;5100485;27;8801;-42
2021/06/10 02:19:25;;;;;;;;;5.67;5.00;;;;;;;;5091376;27;8778;-42
2021/06/10 02:21:50;;;;;;;;;6.00;5.00;;;;;;;;5102502;27;8781;-42
2021/06/10 02:24:16;;;;;;;;;5.33;5.00;;;;;;;;5090925;28;8788;-42
2021/06/10 02:26:42;;;;;;;;;5.33;5.00;;;;;;;;5102105;27;8931;-42
2021/06/10 02:29:08;;;;;;;;;4.50;4.25;;;;;;;;5097640;27;8852;-42
2021/06/10 02:31:33;;;;;;;;;6.33;6.33;;;;;;;;5102737;27;8844;-43
2021/06/10 02:33:58;;;;;;;;;6.00;6.00;;;;;;;;5088911;28;8781;-42
2021/06/10 02:36:24;;;;;;;;;5.33;5.33;;;;;;;;5101084;27;8841;-42
2021/06/10 02:38:54;;;;;;;;;5.00;5.00;;;;;;;;5092904;28;8896;-42
2021/06/10 02:41:21;;;;;;;;;5.00;5.00;;;;;;;;5084632;27;8807;-42
2021/06/10 02:43:49;;;;;;;;;3.75;3.75;;;;;;;;5089022;27;8804;-42
2021/06/10 02:46:14;;;;;;;;;6.00;6.00;;;;;;;;5096537;27;8800;-42
2021/06/10 02:48:40;;;;;;;;;6.33;5.67;;;;;;;;5081782;28;8773;-42
2021/06/10 02:51:06;;;;;;;;;5.25;5.00;;;;;;;;5085475;28;8773;-42
2021/06/10 02:53:32;;;;;;;;;6.00;6.00;;;;;;;;5090110;27;8767;-42
2021/06/10 02:56:00;;;;;;;;;5.00;5.00;;;;;;;;5099881;28;8766;-42
2021/06/10 02:58:25;;;;;;;;;4.25;4.25;;;;;;;;5087670;28;8800;-42
2021/06/10 03:00:51;;;;;;;;;5.00;4.00;;;;;;;;5079728;28;9494;-42
2021/06/10 03:03:17;;;;;;;;;5.67;5.67;;;;;;;;5081232;28;8801;-42
2021/06/10 03:05:43;;;;;;;;;5.00;5.00;;;;;;;;5082408;28;8814;-42
2021/06/10 03:08:13;;;;;;;;;3.67;3.67;;;;;;;;5080930;28;8892;-42
2021/06/10 03:10:38;;;;;;;;;4.50;4.50;;;;;;;;5081130;28;8801;-42
2021/06/10 03:13:04;;;;;;;;;5.00;5.00;;;;;;;;5081565;28;8801;-42
2021/06/10 03:15:30;;;;;;;;;4.00;4.00;;;;;;;;5077821;28;8861;-42
2021/06/10 03:17:57;;;;;;;;;4.75;4.75;;;;;;;;5070552;28;8789;-42
2021/06/10 03:20:23;;;;;;;;;5.00;5.00;;;;;;;;5101195;28;8747;-42
2021/06/10 03:22:48;;;;;;;;;4.75;4.75;;;;;;;;5097142;27;8774;-42
2021/06/10 03:25:14;;;;;;;;;5.00;5.00;;;;;;;;5101360;28;9547;-42
2021/06/10 03:27:39;;;;;;;;;5.33;5.00;;;;;;;;5100254;28;8921;-42
2021/06/10 03:30:06;;;;;;;;;4.00;4.00;;;;;;;;5104871;28;8815;-42
2021/06/10 03:32:32;;;;;;;;;5.00;4.00;;;;;;;;5099156;28;8814;-42
2021/06/10 03:34:57;;;;;;;;;4.67;4.67;;;;;;;;5090907;28;8778;-42
2021/06/10 03:37:23;;;;;;;;;4.33;4.33;;;;;;;;5083009;28;9518;-42
2021/06/10 03:39:50;;;;;;;;;4.00;4.00;;;;;;;;5101061;27;8725;-42
2021/06/10 03:42:16;;;;;;;;;5.75;5.25;;;;;;;;5096686;28;8826;-42
2021/06/10 03:44:41;;;;;;;;;4.75;4.75;;;;;;;;5103780;28;8794;-43
2021/06/10 03:47:07;;;;;;;;;4.00;4.00;;;;;;;;5100222;28;8765;-42
2021/06/10 03:49:32;;;;;;;;;5.00;5.00;;;;;;;;5091671;28;8795;-43
2021/06/10 03:51:58;;;;;;;;;4.33;4.33;;;;;;;;5080670;28;8898;-43
2021/06/10 03:54:23;;;;;;;;;3.67;3.67;;;;;;;;5095316;28;9464;-42
2021/06/10 03:56:48;;;;;;;;;6.00;6.00;;;;;;;;5101030;28;8757;-42
2021/06/10 03:59:14;;;;;;;;;5.00;5.00;;;;;;;;5085845;28;8764;-42
2021/06/10 04:01:39;;;;;;;;;5.50;5.00;;;;;;;;5079010;28;8750;-42
2021/06/10 04:04:05;;;;;;;;;3.67;3.67;;;;;;;;5083753;28;8800;-42
2021/06/10 04:06:34;;;;;;;;;4.00;4.00;;;;;;;;5083180;27;8843;-42
2021/06/10 04:09:00;;;;;;;;;5.00;5.00;;;;;;;;5106650;28;8800;-42
2021/06/10 04:11:26;;;;;;;;;4.50;4.00;;;;;;;;5081385;28;8766;-42
2021/06/10 04:13:51;;;;;;;;;5.00;5.00;;;;;;;;5085282;28;9597;-42
2021/06/10 04:16:16;;;;;;;;;4.00;4.00;;;;;;;;5088619;28;8789;-42
2021/06/10 04:18:41;;;;;;;;;4.67;4.67;;;;;;;;5083734;28;8718;-42
2021/06/10 04:21:07;;;;;;;;;5.67;5.00;;;;;;;;5081778;28;8790;-42
2021/06/10 04:23:32;;;;;;;;;4.00;4.00;;;;;;;;5081683;28;8778;-42
2021/06/10 04:25:57;;;;;;;;;4.67;4.67;;;;;;;;5075594;28;9556;-41
2021/06/10 04:28:22;;;;;;;;;6.00;5.67;;;;;;;;5076842;28;8881;-41
2021/06/10 04:30:48;;;;;;;;;3.67;3.67;;;;;;;;5080552;28;8841;-40
2021/06/10 04:33:13;;;;;;;;;4.67;4.67;;;;;;;;5101394;28;8885;-41
2021/06/10 04:35:38;;;;;;;;;6.00;6.00;;;;;;;;5080439;28;8932;-41
2021/06/10 04:38:03;;;;;;;;;4.33;4.33;;;;;;;;5094363;28;8788;-41
2021/06/10 04:40:28;;;;;;;;;3.67;3.67;;;;;;;;5083185;28;8890;-41
2021/06/10 04:42:54;;;;;;;;;3.33;3.33;;;;;;;;5089313;28;8783;-41
2021/06/10 04:45:19;;;;;;;;;5.00;5.00;;;;;;;;5102184;27;8823;-41
2021/06/10 04:47:44;;;;;;;;;5.33;5.33;;;;;;;;5088131;28;8793;-41
2021/06/10 04:50:10;;;;;;;;;5.00;5.00;;;;;;;;5099095;27;8785;-41
2021/06/10 04:52:35;;;;;;;;;5.00;5.00;;;;;;;;5105034;28;8795;-41
2021/06/10 04:55:00;;;;;;;;;5.00;5.00;;;;;;;;5100847;27;8787;-41
2021/06/10 04:57:25;;;;;;;;;3.67;3.67;;;;;;;;5106283;28;8857;-41
2021/06/10 04:59:50;;;;;;;;;5.00;5.00;;;;;;;;5106191;27;9535;-41
2021/06/10 05:02:15;;;;;;;;;4.00;4.00;;;;;;;;5080295;28;8907;-42
2021/06/10 05:04:41;;;;;;;;;3.00;3.00;;;;;;;;5089542;28;8940;-42
2021/06/10 05:07:09;;;;;;;;;4.50;4.50;;;;;;;;5087938;28;8772;-43
2021/06/10 05:09:35;;;;;;;;;4.00;4.00;;;;;;;;5100993;27;8816;-42
2021/06/10 05:12:00;;;;;;;;;3.33;3.33;;;;;;;;5103755;28;8781;-42
2021/06/10 05:14:25;;;;;;;;;4.00;4.00;;;;;;;;5084061;28;8772;-42
2021/06/10 05:16:50;;;;;;;;;2.67;2.67;;;;;;;;5083688;28;8754;-42
2021/06/10 05:19:16;;;;;;;;;4.33;4.33;;;;;;;;5089705;27;8765;-42
2021/06/10 05:21:41;;;;;;;;;6.00;5.00;;;;;;;;5097888;28;8749;-42
2021/06/10 05:24:08;;;;;;;;;2.00;2.00;;;;;;;;5085338;28;8786;-42
2021/06/10 05:26:34;;;;;;;;;4.00;4.00;;;;;;;;5102856;28;8821;-42
2021/06/10 05:28:59;;;;;;;;;5.00;5.00;;;;;;;;5102837;27;8810;-42
2021/06/10 05:31:24;;;;;;;;;5.00;5.00;;;;;;;;5091970;28;8942;-42
2021/06/10 05:33:50;;;;;;;;;4.67;4.67;;;;;;;;5092568;27;9072;-41
2021/06/10 05:36:16;;;;;;;;;4.75;4.75;;;;;;;;5098477;28;8817;-42
2021/06/10 05:38:41;;;;;;;;;4.33;4.33;;;;;;;;5093782;27;8828;-41
2021/06/10 05:41:06;;;;;;;;;5.33;5.00;;;;;;;;5083422;27;8841;-41
2021/06/10 05:43:32;;;;;;;;;6.00;6.00;;;;;;;;5077134;28;8926;-41
2021/06/10 05:45:57;;;;;;;;;4.00;4.00;;;;;;;;5082169;28;8828;-47
2021/06/10 05:48:22;;;;;;;;;4.00;4.00;;;;;;;;5033587;27;8817;-43
2021/06/10 05:50:47;;;;;;;;;4.00;4.00;;;;;;;;5092607;28;9598;-43
2021/06/10 05:53:15;;;;;;;;;6.00;5.33;;;;;;;;5075846;28;8813;-42
2021/06/10 05:55:40;;;;;;;;;4.75;4.75;;;;;;;;5074705;28;8801;-42
2021/06/10 05:58:06;;;;;;;;;5.33;5.33;;;;;;;;5071052;28;8757;-41
2021/06/10 06:00:31;;;;;;;;;5.00;5.00;;;;;;;;5077983;28;8822;-42
2021/06/10 06:02:56;;;;;;;;;4.00;4.00;;;;;;;;5073829;28;8800;-42
2021/06/10 06:05:22;;;;;;;;;6.00;5.33;;;;;;;;5092560;28;8802;-41
2021/06/10 06:07:48;;;;;;;;;5.00;5.00;;;;;;;;5083777;28;8779;-41
2021/06/10 06:10:14;;;;;;;;;5.00;5.00;;;;;;;;5076755;27;8779;-41
2021/06/10 06:12:41;;;;;;;;;2.50;2.50;;;;;;;;5098847;27;8898;-41
2021/06/10 06:15:07;;;;;;;;;2.00;2.00;;;;;;;;5080397;28;8833;-41
2021/06/10 06:17:33;;;;;;;;;5.00;5.00;;;;;;;;5075468;28;9604;-41
2021/06/10 06:20:01;;;;;;;;;4.33;4.33;;;;;;;;5082554;28;8825;-44
2021/06/10 06:22:28;;;;;;;;;6.25;5.75;;;;;;;;5086513;27;8738;-43
2021/06/10 06:24:53;;;;;;;;;6.00;5.25;;;;;;;;5100173;27;8780;-41
2021/06/10 06:27:18;;;;;;;;;6.33;5.67;;;;;;;;5098429;28;8849;-41
2021/06/10 06:29:44;;;;;;;;;6.00;6.00;;;;;;;;5080335;28;8787;-41
2021/06/10 06:32:09;;;;;;;;;5.00;4.67;;;;;;;;5078482;28;8818;-41
2021/06/10 06:34:34;;;;;;;;;5.00;5.00;;;;;;;;5080593;28;8874;-41
2021/06/10 06:36:59;;;;;;;;;4.00;4.00;;;;;;;;5081911;28;9466;-41
2021/06/10 06:39:24;;;;;;;;;6.00;6.00;;;;;;;;5099122;27;8796;-41
2021/06/10 06:41:50;;;;;;;;;5.00;5.00;;;;;;;;5092519;28;9495;-41
2021/06/10 06:44:15;;;;;;;;;6.67;6.33;;;;;;;;5083888;28;8925;-41
2021/06/10 06:46:40;;;;;;;;;4.33;4.33;;;;;;;;5077117;28;8778;-41
2021/06/10 06:49:05;;;;;;;;;5.33;5.33;;;;;;;;5080677;28;8734;-41
2021/06/10 06:51:31;;;;;;;;;4.67;4.33;;;;;;;;5072514;28;8788;-41
2021/06/10 06:53:56;;;;;;;;;5.33;5.00;;;;;;;;5075318;28;8806;-41
2021/06/10 06:56:22;;;;;;;;;6.33;6.00;;;;;;;;5072067;28;11503;-41
2021/06/10 06:58:48;;;;;;;;;5.33;5.33;;;;;;;;5075844;28;8775;-41
2021/06/10 07:01:13;;;;;;;;;4.33;4.33;;;;;;;;5076769;28;8860;-41
2021/06/10 07:03:38;;;;;;;;;5.00;5.00;;;;;;;;5078843;28;8774;-41
2021/06/10 07:06:03;;;;;;;;;5.00;5.00;;;;;;;;5096895;28;8834;-41
2021/06/10 07:08:31;;;;;;;;;4.33;4.33;;;;;;;;5088457;28;8770;-41
2021/06/10 07:10:56;;;;;;;;;6.00;4.50;;;;;;;;5085824;28;8764;-41
2021/06/10 07:13:22;;;;;;;;;5.67;5.67;;;;;;;;5091813;27;8803;-41
2021/06/10 07:15:47;;;;;;;;;4.00;4.00;;;;;;;;5080264;28;8800;-41
2021/06/10 07:18:12;;;;;;;;;5.00;5.00;;;;;;;;5085625;28;8798;-41
2021/06/10 07:20:38;;;;;;;;;4.00;4.00;;;;;;;;5079744;28;8801;-43
2021/06/10 07:23:03;;;;;;;;;6.67;6.00;;;;;;;;5093421;28;8779;-41
2021/06/10 07:25:28;;;;;;;;;4.33;4.33;;;;;;;;5091239;28;8806;-41
2021/06/10 07:27:53;;;;;;;;;5.00;5.00;;;;;;;;5099057;28;8946;-41
2021/06/10 07:30:21;;;;;;;;;5.00;4.00;;;;;;;;5093560;28;8771;-41
2021/06/10 07:32:46;;;;;;;;;4.50;4.50;;;;;;;;5102016;28;8765;-41
2021/06/10 07:35:12;;;;;;;;;5.67;5.67;;;;;;;;5090820;28;9531;-41
2021/06/10 07:37:37;;;;;;;;;6.00;5.67;;;;;;;;5093520;28;8796;-41
2021/06/10 07:40:02;;;;;;;;;2.67;2.67;;;;;;;;5093120;28;8750;-41
2021/06/10 07:42:28;;;;;;;;;5.00;5.00;;;;;;;;5095538;28;8789;-41
2021/06/10 07:44:53;;;;;;;;;4.67;4.67;;;;;;;;5093953;28;8849;-41
2021/06/10 07:47:18;;;;;;;;;5.00;5.00;;;;;;;;5096307;28;8782;-41
2021/06/10 07:49:43;;;;;;;;;5.00;4.00;;;;;;;;5093088;28;8799;-41
2021/06/10 07:52:08;;;;;;;;;6.33;6.33;;;;;;;;5096515;28;8797;-42
2021/06/10 07:54:34;;;;;;;;;5.00;5.00;;;;;;;;5094773;28;8768;-41
2021/06/10 07:56:59;;;;;;;;;5.00;5.00;;;;;;;;5091918;28;8932;-41
2021/06/10 07:59:26;;;;;;;;;4.67;4.00;;;;;;;;5090913;28;8752;-41
2021/06/10 08:01:52;;;;;;;;;6.00;6.00;;;;;;;;5096604;28;8788;-41
2021/06/10 08:04:17;;;;;;;;;6.00;5.50;;;;;;;;5095236;27;8774;-41
2021/06/10 08:06:42;;;;;;;;;5.00;5.00;;;;;;;;5100439;28;8825;-41
2021/06/10 08:09:07;;;;;;;;;6.00;6.00;;;;;;;;5101091;27;8783;-41
2021/06/10 08:11:34;;;;;;;;;6.00;5.00;;;;;;;;5098424;28;8810;-41
2021/06/10 08:13:59;;;;;;;;;3.75;3.75;;;;;;;;5098303;28;8822;-41
2021/06/10 08:16:24;;;;;;;;;5.00;5.00;;;;;;;;5094539;28;8772;-41
2021/06/10 08:18:49;;;;;;;;;6.33;5.33;;;;;;;;5100823;27;8774;-41
2021/06/10 08:21:14;;;;;;;;;4.67;4.67;;;;;;;;5102391;28;8827;-41
2021/06/10 08:23:40;;;;;;;;;5.50;5.50;;;;;;;;5095836;27;8810;-41
2021/06/10 08:26:07;;;;;;;;;5.00;4.67;;;;;;;;5099432;28;8861;-41
2021/06/10 08:28:33;;;;;;;;;2.00;2.00;;;;;;;;5097701;27;8776;-41
2021/06/10 08:30:58;;;;;;;;;5.00;5.00;;;;;;;;5098241;28;8797;-40
2021/06/10 08:33:23;;;;;;;;;6.00;6.00;;;;;;;;5097664;27;8900;-41
2021/06/10 08:35:49;;;;;;;;;5.00;5.00;;;;;;;;5103424;28;8788;-41
2021/06/10 08:38:14;;;;;;;;;7.00;4.33;;;;;;;;5101776;28;9531;-41
2021/06/10 08:40:39;;;;;;;;;5.00;5.00;;;;;;;;5102770;28;8836;-41
2021/06/10 08:43:05;;;;;;;;;3.67;3.67;;;;;;;;5100522;27;8746;-41
2021/06/10 08:45:31;;;;;;;;;5.50;5.00;;;;;;;;5102474;28;9041;-41
2021/06/10 08:47:58;;;;;;;;;4.50;4.50;;;;;;;;5094236;28;9997;-41
2021/06/10 08:50:24;;;;;;;;;4.75;4.50;;;;;;;;5096077;28;8875;-41
2021/06/10 08:52:53;;;;;;;;;5.00;4.00;;;;;;;;5096412;27;8757;-41
2021/06/10 08:55:19;;;;;;;;;5.50;5.50;;;;;;;;5095150;28;8785;-41
2021/06/10 08:57:45;;;;;;;;;4.00;4.00;;;;;;;;5096979;27;8814;-41
2021/06/10 09:00:10;;;;;;;;;5.00;5.00;;;;;;;;5097711;28;8792;-41
2021/06/10 09:02:36;;;;;;;;;5.00;5.00;;;;;;;;5097249;27;8918;-41
2021/06/10 09:05:02;;;;;;;;;5.00;5.00;;;;;;;;5103097;28;8776;-41
2021/06/10 09:07:38;;;;;;;;;4.25;4.25;;;;;;;;5096057;28;8955;-41
2021/06/10 09:10:03;;;;;;;;;5.75;5.50;;;;;;;;5100896;28;8752;-41
2021/06/10 09:12:34;;;;;;;;;6.00;5.33;;;;;;;;5096905;27;8869;-41
2021/06/10 09:15:01;;;;;;;;;4.75;4.75;;;;;;;;5081842;28;8930;-41
2021/06/10 09:17:29;;;;;;;;;5.00;5.00;;;;;;;;5074097;28;8798;-41
2021/06/10 09:19:55;;;;;;;;;4.50;4.50;;;;;;;;5075701;28;8774;-41
2021/06/10 09:22:24;;;;;;;;;5.33;4.67;;;;;;;;5072869;28;8844;-41
2021/06/10 09:24:50;;;;;;;;;5.25;4.75;;;;;;;;5075211;28;8817;-41
2021/06/10 09:27:16;;;;;;;;;5.00;4.33;;;;;;;;5077020;28;8851;-41
2021/06/10 09:29:41;;;;;;;;;5.25;4.50;;;;;;;;5075459;28;8802;-41
2021/06/10 09:32:17;;;;;;;;;4.33;4.33;;;;;;;;5092868;27;8788;-41
2021/06/10 09:34:44;;;;;;;;;5.00;4.50;;;;;;;;5087017;27;8783;-40
2021/06/10 09:37:10;;;;;;;;;3.25;3.25;;;;;;;;5066295;28;8764;-44
2021/06/10 09:39:46;;;;;;;;;4.75;3.25;;;;;;;;5032934;27;8793;-42
2021/06/10 09:42:13;;;;;;;;;5.50;5.00;;;;;;;;5075895;28;9567;-41
2021/06/10 09:44:38;;;;;;;;;5.00;4.75;;;;;;;;5074554;28;8773;-42
2021/06/10 09:47:03;;;;;;;;;5.00;5.00;;;;;;;;5075051;28;8837;-41
2021/06/10 09:49:29;;;;;;;;;5.67;5.67;;;;;;;;5079300;28;8910;-43
2021/06/10 09:51:54;;;;;;;;;6.33;6.00;;;;;;;;5077741;28;8886;-41
2021/06/10 09:54:38;;;;;;;;;6.67;6.67;;;;;;;;5078149;28;8825;-42
2021/06/10 09:57:03;;;;;;;;;4.50;4.25;;;;;;;;5076291;28;8810;-42
2021/06/10 09:59:44;;;;;;;;;4.00;4.00;;;;;;;;5072277;28;8947;-46
2021/06/10 10:02:17;;;;;;;;;4.50;4.50;;;;;;;;5083449;28;8953;-46
2021/06/10 10:04:58;;;;;;;;;5.25;5.25;;;;;;;;5086207;28;8797;-42
2021/06/10 10:07:25;;;;;;;;;5.50;5.00;;;;;;;;5070722;28;8758;-42
2021/06/10 10:09:51;;;;;;;;;4.50;4.00;;;;;;;;5072120;28;8793;-41
2021/06/10 10:12:16;;;;;;;;;5.00;5.00;;;;;;;;5091921;28;8812;-41
2021/06/10 10:14:41;;;;;;;;;7.00;6.00;;;;;;;;5077313;28;9996;-41
2021/06/10 10:17:07;;;;;;;;;4.33;4.33;;;;;;;;5080897;28;8771;-41
2021/06/10 10:19:32;;;;;;;;;4.33;4.33;;;;;;;;5086757;27;8797;-41
2021/06/10 10:21:57;;;;;;;;;3.33;3.00;;;;;;;;5079453;28;8800;-41
2021/06/10 10:24:23;;;;;;;;;3.00;3.00;;;;;;;;5070408;28;8782;-41
2021/06/10 10:26:49;;;;;;;;;3.67;3.00;;;;;;;;5073301;28;8960;-42
2021/06/10 10:29:16;;;;;;;;;3.00;3.00;;;;;;;;5082757;28;8778;-41
2021/06/10 10:31:42;;;;;;;;;3.50;3.50;;;;;;;;5094516;28;8813;-41
2021/06/10 10:34:20;;;;;;;;;4.00;4.00;;;;;;;;5094414;27;8809;-41
2021/06/10 10:36:46;;;;;;;;;4.00;4.00;;;;;;;;5078496;28;8812;-41
2021/06/10 10:39:11;;;;;;;;;5.33;5.00;;;;;;;;5074715;28;8982;-41
2021/06/10 10:41:47;;;;;;;;;4.00;3.67;;;;;;;;5072229;28;8805;-41
2021/06/10 10:44:25;;;;;;;;;3.50;3.50;;;;;;;;5082095;27;8772;-41
2021/06/10 10:46:59;;;;;;;;;4.50;4.50;;;;;;;;5095404;28;8800;-41
2021/06/10 10:49:25;;;;;;;;;4.00;4.00;;;;;;;;5095851;27;8777;-41
2021/06/10 10:51:51;;;;;;;;;1.75;1.75;;;;;;;;5098951;27;8781;-41
2021/06/10 10:54:29;;;;;;;;;3.00;3.00;;;;;;;;5094307;28;8830;-41
2021/06/10 10:56:54;;;;;;;;;2.75;2.75;;;;;;;;5091917;28;8816;-41
2021/06/10 10:59:20;;;;;;;;;3.00;3.00;;;;;;;;5093322;27;8789;-42
2021/06/10 11:02:05;;;;;;;;;2.67;2.67;;;;;;;;5098149;27;9636;-41
2021/06/10 11:04:49;;;;;;;;;4.25;4.25;;;;;;;;5090597;27;8780;-41
2021/06/10 11:07:32;;;;;;;;;2.00;2.00;;;;;;;;5075570;28;8810;-42
2021/06/10 11:09:58;;;;;;;;;3.25;3.25;;;;;;;;5077790;28;9840;-42
2021/06/10 11:12:44;;;;;;;;;2.33;2.33;;;;;;;;5092917;27;8793;-40
2021/06/10 11:15:15;;;;;;;;;3.50;3.50;;;;;;;;5076866;28;8801;-42
2021/06/10 11:17:44;;;;;;;;;2.50;2.50;;;;;;;;5074382;28;8790;-40
2021/06/10 11:20:13;;;;;;;;;3.25;3.25;;;;;;;;5075545;28;8770;-41
2021/06/10 11:22:42;;;;;;;;;2.50;2.50;;;;;;;;5078149;28;8786;-41
2021/06/10 11:25:08;;;;;;;;;3.25;3.25;;;;;;;;5073172;28;8849;-42
2021/06/10 11:27:39;;;;;;;;;3.33;3.33;;;;;;;;5074243;28;8886;-41
2021/06/10 11:30:11;;;;;;;;;4.75;4.75;;;;;;;;5077019;28;12158;-41
2021/06/10 11:32:56;;;;;;;;;4.50;4.50;;;;;;;;5072150;28;8790;-42
2021/06/10 11:35:34;;;;;;;;;3.75;3.75;;;;;;;;5083858;27;8786;-42
2021/06/10 11:38:03;;;;;;;;;3.50;3.50;;;;;;;;5096879;27;8842;-42
2021/06/10 11:40:28;;;;;;;;;4.50;4.50;;;;;;;;5091528;28;8770;-43
2021/06/10 11:42:54;;;;;;;;;2.67;2.33;;;;;;;;5080493;28;8879;-42
2021/06/10 11:45:26;;;;;;;;;4.67;3.67;;;;;;;;5099954;27;9361;-42
2021/06/10 11:47:51;;;;;;;;;2.75;2.75;;;;;;;;5093461;28;8818;-42
2021/06/10 11:50:26;;;;;;;;;4.00;3.00;;;;;;;;5093296;27;8864;-42
2021/06/10 11:52:52;;;;;;;;;3.75;3.75;;;;;;;;5093367;28;8772;-42
2021/06/10 11:55:18;;;;;;;;;3.00;3.00;;;;;;;;5094950;28;9533;-43
2021/06/10 11:57:43;;;;;;;;;2.67;2.67;;;;;;;;5096897;28;8802;-42
2021/06/10 12:00:10;;;;;;;;;3.67;3.67;;;;;;;;5096429;27;9483;-42
2021/06/10 12:02:37;;;;;;;;;2.75;2.75;;;;;;;;5095569;28;8978;-42
2021/06/10 12:05:06;;;;;;;;;3.00;2.75;;;;;;;;5093520;27;8814;-42
2021/06/10 12:07:31;;;;;;;;;3.25;2.75;;;;;;;;5095353;28;8776;-42
2021/06/10 12:09:57;;;;;;;;;3.00;2.67;;;;;;;;5095915;27;8829;-43
2021/06/10 12:12:38;;;;;;;;;3.00;3.00;;;;;;;;5094624;28;8786;-43
2021/06/10 12:15:04;;;;;;;;;2.75;2.75;;;;;;;;5090685;28;8791;-41
2021/06/10 12:17:47;;;;;;;;;3.67;3.67;;;;;;;;5084977;28;8765;-41
2021/06/10 12:20:20;;;;;;;;;3.67;3.33;;;;;;;;5083413;28;8788;-44
2021/06/10 12:22:46;;;;;;;;;3.00;3.00;;;;;;;;5076172;28;8766;-42
2021/06/10 12:25:18;;;;;;;;;3.00;3.00;;;;;;;;5074417;28;8781;-42
2021/06/10 12:27:44;;;;;;;;;3.50;3.50;;;;;;;;5077037;28;8835;-42
2021/06/10 12:30:24;;;;;;;;;3.33;3.33;;;;;;;;5074173;28;9408;-42
2021/06/10 12:32:49;;;;;;;;;2.25;2.00;;;;;;;;5070025;28;8788;-43
2021/06/10 12:35:19;;;;;;;;;1.67;1.67;;;;;;;;5073418;28;9433;-43
2021/06/10 12:37:49;;;;;;;;;2.75;2.75;;;;;;;;5073395;28;8781;-42
2021/06/10 12:40:15;;;;;;;;;3.25;2.75;;;;;;;;5074668;28;9655;-42
2021/06/10 12:42:40;;;;;;;;;3.00;3.00;;;;;;;;5075202;28;8892;-42
2021/06/10 12:45:23;;;;;;;;;1.67;1.67;;;;;;;;5086871;28;11439;-42
2021/06/10 12:47:49;;;;;;;;;1.75;1.75;;;;;;;;5092379;27;8791;-42
2021/06/10 12:50:21;;;;;;;;;2.00;2.00;;;;;;;;5084350;28;8876;-42
2021/06/10 12:52:47;;;;;;;;;1.75;1.75;;;;;;;;5078340;28;8800;-43
2021/06/10 12:55:12;;;;;;;;;2.75;2.00;;;;;;;;5078474;28;8782;-42
2021/06/10 12:57:38;;;;;;;;;1.00;1.00;;;;;;;;5078905;28;9600;-42
2021/06/10 13:00:06;;;;;;;;;3.00;3.00;;;;;;;;5077546;28;8802;-42
2021/06/10 13:02:32;;;;;;;;;3.25;2.50;;;;;;;;5077773;28;10683;-43
2021/06/10 13:04:59;;;;;;;;;1.75;1.75;;;;;;;;5087598;28;8768;-42
2021/06/10 13:07:36;;;;;;;;;1.75;1.75;;;;;;;;5094051;28;8772;-42
2021/06/10 13:10:05;;;;;;;;;1.00;1.00;;;;;;;;5080542;28;8905;-42
2021/06/10 13:12:32;;;;;;;;;2.25;2.25;;;;;;;;5074078;28;8781;-43
2021/06/10 13:15:10;;;;;;;;;2.25;2.25;;;;;;;;5078636;28;8786;-41
2021/06/10 13:17:54;;;;;;;;;1.75;1.75;;;;;;;;5076412;28;8792;-42
2021/06/10 13:20:38;;;;;;;;;1.50;1.50;;;;;;;;5079617;28;8801;-42
2021/06/10 13:23:03;;;;;;;;;1.75;1.75;;;;;;;;5086904;27;8791;-43
2021/06/10 13:25:28;;;;;;;;;1.67;1.67;;;;;;;;5099098;27;8784;-42
2021/06/10 13:28:12;;;;;;;;;2.00;2.00;;;;;;;;5077835;28;8823;-42
2021/06/10 13:30:38;;;;;;;;;2.00;2.00;;;;;;;;5101260;27;9718;-42
2021/06/10 13:33:04;;;;;;;;;1.33;1.33;;;;;;;;5096558;27;8824;-42
2021/06/10 13:35:33;;;;;;;;;1.25;1.25;;;;;;;;5086863;27;9498;-42
2021/06/10 13:37:58;;;;;;;;;2.00;2.00;;;;;;;;5081358;27;8855;-42
2021/06/10 13:40:24;;;;;;;;;2.00;2.00;;;;;;;;5102449;27;9414;-41
2021/06/10 13:42:52;;;;;;;;;1.67;1.67;;;;;;;;5101226;27;8789;-42
2021/06/10 13:45:18;;;;;;;;;2.00;2.00;;;;;;;;5078263;28;8786;-43
2021/06/10 13:47:43;;;;;;;;;1.00;1.00;;;;;;;;5075538;28;8768;-42
2021/06/10 13:50:09;;;;;;;;;1.33;1.00;;;;;;;;5078510;28;9029;-43
2021/06/10 13:52:34;;;;;;;;;1.67;1.67;;;;;;;;5076058;28;9592;-42
2021/06/10 13:54:59;;;;;;;;;1.67;1.67;;;;;;;;5083139;28;8900;-42
2021/06/10 13:57:24;;;;;;;;;3.00;3.00;;;;;;;;5077135;28;8808;-42
2021/06/10 13:59:50;;;;;;;;;0.67;0.67;;;;;;;;5076962;28;8785;-43
2021/06/10 14:02:15;;;;;;;;;1.67;1.67;;;;;;;;5074518;28;8801;-42
2021/06/10 14:04:40;;;;;;;;;1.67;1.67;;;;;;;;5072926;28;8828;-39
2021/06/10 14:07:06;;;;;;;;;1.67;1.67;;;;;;;;5073271;28;8821;-40
2021/06/10 14:09:32;;;;;;;;;1.50;1.50;;;;;;;;5077754;28;8798;-41
2021/06/10 14:11:57;;;;;;;;;1.33;1.33;;;;;;;;5074151;28;9644;-39
2021/06/10 14:14:23;;;;;;;;;1.33;1.33;;;;;;;;5088662;28;8884;-43
2021/06/10 14:16:48;;;;;;;;;1.00;1.00;;;;;;;;5087078;28;8797;-43
2021/06/10 14:19:18;;;;;;;;;2.00;2.00;;;;;;;;5079320;28;8824;-42
2021/06/10 14:21:43;;;;;;;;;1.50;1.50;;;;;;;;5096087;27;8821;-40
2021/06/10 14:24:08;;;;;;;;;3.00;2.67;;;;;;;;5078236;28;9501;-40
2021/06/10 14:26:34;;;;;;;;;5.67;3.00;;;;;;;;5074449;28;9579;-38
2021/06/10 14:29:06;;;;;;;;;3.00;3.00;;;;;;;;5077241;28;8770;-42
2021/06/10 14:34:03;;;;;;;;;4.00;3.00;;;;;;;;5079327;28;8790;-43
2021/06/10 14:36:29;;;;;;;;;3.50;3.00;;;;;;;;5076226;28;8868;-42
2021/06/10 14:38:55;;;;;;;;;2.00;2.00;;;;;;;;5078768;28;8925;-40
2021/06/10 14:41:20;;;;;;;;;3.50;3.50;;;;;;;;5073591;28;8776;-40
2021/06/10 14:43:46;;;;;;;;;3.00;3.00;;;;;;;;5077220;28;8769;-42
2021/06/10 14:46:11;;;;;;;;;2.67;2.67;;;;;;;;5077116;28;8821;-41
2021/06/10 14:48:37;;;;;;;;;3.00;3.00;;;;;;;;5081753;28;8824;-42
2021/06/10 14:51:03;;;;;;;;;2.25;2.25;;;;;;;;5079054;28;8915;-41
2021/06/10 14:53:28;;;;;;;;;2.25;2.00;;;;;;;;5089996;28;8789;-40
2021/06/10 14:55:54;;;;;;;;;2.00;2.00;;;;;;;;5098904;27;9607;-41
2021/06/10 14:58:19;;;;;;;;;2.00;2.00;;;;;;;;5092520;28;8875;-40